sensor_id;sensor_type;location;lat;lon;timestamp;P1;durP1;ratioP1;P2;durP2;ratioP2
50872;SDS011;72604;40.088;18.346;2024-01-10T00:01:57;29.20;;;17.85;;
50872;SDS011;72604;40.088;18.346;2024-01-10T00:05:37;25.60;;;16.55;;
50872;SDS011;72604;40.088;18.346;2024-01-10T00:09:18;27.83;;;18.42;;
50872;SDS011;72604;40.088;18.346;2024-01-10T00:12:59;35.80;;;24.13;;
50872;SDS011;72604;40.088;18.346;2024-01-10T00:16:40;38.92;;;25.98;;
50872;SDS011;72604;40.088;18.346;2024-01-10T00:20:22;38.08;;;26.77;;
50872;SDS011;72604;40.088;18.346;2024-01-10T00:24:03;35.38;;;23.50;;
50872;SDS011;72604;40.088;18.346;2024-01-10T00:27:44;34.42;;;22.60;;
50872;SDS011;72604;40.088;18.346;2024-01-10T00:31:25;33.17;;;19.85;;
50872;SDS011;72604;40.088;18.346;2024-01-10T00:35:07;31.50;;;18.70;;
50872;SDS011;72604;40.088;18.346;2024-01-10T00:38:49;30.58;;;19.65;;
50872;SDS011;72604;40.088;18.346;2024-01-10T00:42:30;31.48;;;18.67;;
50872;SDS011;72604;40.088;18.346;2024-01-10T00:46:11;32.03;;;18.85;;
50872;SDS011;72604;40.088;18.346;2024-01-10T00:49:51;32.70;;;18.48;;
50872;SDS011;72604;40.088;18.346;2024-01-10T00:53:32;30.25;;;20.00;;
50872;SDS011;72604;40.088;18.346;2024-01-10T00:57:15;30.90;;;20.38;;
50872;SDS011;72604;40.088;18.346;2024-01-10T01:00:55;31.90;;;19.70;;
50872;SDS011;72604;40.088;18.346;2024-01-10T01:04:37;30.67;;;19.15;;
50872;SDS011;72604;40.088;18.346;2024-01-10T01:08:18;31.45;;;18.15;;
50872;SDS011;72604;40.088;18.346;2024-01-10T01:11:59;28.27;;;17.33;;
50872;SDS011;72604;40.088;18.346;2024-01-10T01:15:41;36.63;;;20.38;;
50872;SDS011;72604;40.088;18.346;2024-01-10T01:19:22;37.40;;;19.25;;
50872;SDS011;72604;40.088;18.346;2024-01-10T01:23:03;31.80;;;20.48;;
50872;SDS011;72604;40.088;18.346;2024-01-10T01:26:44;31.70;;;19.48;;
50872;SDS011;72604;40.088;18.346;2024-01-10T01:30:25;31.95;;;18.65;;
50872;SDS011;72604;40.088;18.346;2024-01-10T01:34:07;34.42;;;18.45;;
50872;SDS011;72604;40.088;18.346;2024-01-10T01:37:48;28.75;;;16.42;;
50872;SDS011;72604;40.088;18.346;2024-01-10T01:41:30;26.80;;;16.55;;
50872;SDS011;72604;40.088;18.346;2024-01-10T01:45:12;31.33;;;16.20;;
50872;SDS011;72604;40.088;18.346;2024-01-10T01:48:53;32.50;;;16.02;;
50872;SDS011;72604;40.088;18.346;2024-01-10T01:52:35;25.85;;;14.07;;
50872;SDS011;72604;40.088;18.346;2024-01-10T01:56:17;24.83;;;14.82;;
50872;SDS011;72604;40.088;18.346;2024-01-10T01:59:58;23.25;;;14.30;;
50872;SDS011;72604;40.088;18.346;2024-01-10T02:03:39;22.67;;;13.77;;
50872;SDS011;72604;40.088;18.346;2024-01-10T02:07:20;23.90;;;13.68;;
50872;SDS011;72604;40.088;18.346;2024-01-10T02:11:02;23.83;;;13.52;;
50872;SDS011;72604;40.088;18.346;2024-01-10T02:14:44;24.77;;;13.23;;
50872;SDS011;72604;40.088;18.346;2024-01-10T02:18:25;24.05;;;13.25;;
50872;SDS011;72604;40.088;18.346;2024-01-10T02:22:06;23.20;;;12.48;;
50872;SDS011;72604;40.088;18.346;2024-01-10T02:25:48;22.35;;;13.00;;
50872;SDS011;72604;40.088;18.346;2024-01-10T02:29:30;19.83;;;11.77;;
50872;SDS011;72604;40.088;18.346;2024-01-10T02:33:11;22.23;;;13.23;;
50872;SDS011;72604;40.088;18.346;2024-01-10T02:36:52;21.83;;;12.23;;
50872;SDS011;72604;40.088;18.346;2024-01-10T02:40:32;20.77;;;11.32;;
50872;SDS011;72604;40.088;18.346;2024-01-10T02:44:15;20.85;;;10.93;;
50872;SDS011;72604;40.088;18.346;2024-01-10T02:47:56;18.55;;;10.25;;
50872;SDS011;72604;40.088;18.346;2024-01-10T02:51:37;17.38;;;9.93;;
50872;SDS011;72604;40.088;18.346;2024-01-10T02:55:18;14.73;;;9.88;;
50872;SDS011;72604;40.088;18.346;2024-01-10T02:58:58;21.17;;;10.57;;
50872;SDS011;72604;40.088;18.346;2024-01-10T03:02:40;20.67;;;10.13;;
50872;SDS011;72604;40.088;18.346;2024-01-10T03:06:21;18.65;;;10.00;;
50872;SDS011;72604;40.088;18.346;2024-01-10T03:10:02;16.75;;;9.85;;
50872;SDS011;72604;40.088;18.346;2024-01-10T03:13:44;15.68;;;10.55;;
50872;SDS011;72604;40.088;18.346;2024-01-10T03:17:26;17.23;;;10.55;;
50872;SDS011;72604;40.088;18.346;2024-01-10T03:21:08;17.33;;;9.68;;
50872;SDS011;72604;40.088;18.346;2024-01-10T03:24:50;18.00;;;8.90;;
50872;SDS011;72604;40.088;18.346;2024-01-10T03:28:31;17.50;;;9.70;;
50872;SDS011;72604;40.088;18.346;2024-01-10T03:32:12;20.70;;;10.38;;
50872;SDS011;72604;40.088;18.346;2024-01-10T03:35:52;15.73;;;9.48;;
50872;SDS011;72604;40.088;18.346;2024-01-10T03:39:35;16.25;;;9.13;;
50872;SDS011;72604;40.088;18.346;2024-01-10T03:43:16;17.73;;;8.82;;
50872;SDS011;72604;40.088;18.346;2024-01-10T03:46:57;14.30;;;8.32;;
50872;SDS011;72604;40.088;18.346;2024-01-10T03:50:38;18.15;;;9.10;;
50872;SDS011;72604;40.088;18.346;2024-01-10T03:54:19;16.15;;;9.32;;
50872;SDS011;72604;40.088;18.346;2024-01-10T03:58:01;20.33;;;9.75;;
50872;SDS011;72604;40.088;18.346;2024-01-10T04:01:42;17.98;;;9.32;;
50872;SDS011;72604;40.088;18.346;2024-01-10T04:05:24;13.38;;;8.95;;
50872;SDS011;72604;40.088;18.346;2024-01-10T04:09:05;17.42;;;9.50;;
50872;SDS011;72604;40.088;18.346;2024-01-10T04:12:48;16.48;;;9.18;;
50872;SDS011;72604;40.088;18.346;2024-01-10T04:16:30;19.15;;;10.43;;
50872;SDS011;72604;40.088;18.346;2024-01-10T04:20:12;15.05;;;8.48;;
50872;SDS011;72604;40.088;18.346;2024-01-10T04:23:53;18.42;;;9.68;;
50872;SDS011;72604;40.088;18.346;2024-01-10T04:27:34;14.88;;;9.23;;
50872;SDS011;72604;40.088;18.346;2024-01-10T04:31:15;17.35;;;8.82;;
50872;SDS011;72604;40.088;18.346;2024-01-10T04:34:57;16.48;;;9.23;;
50872;SDS011;72604;40.088;18.346;2024-01-10T04:38:39;16.50;;;9.15;;
50872;SDS011;72604;40.088;18.346;2024-01-10T04:42:19;14.07;;;8.63;;
50872;SDS011;72604;40.088;18.346;2024-01-10T04:46:00;14.80;;;7.90;;
50872;SDS011;72604;40.088;18.346;2024-01-10T04:49:41;16.02;;;8.45;;
50872;SDS011;72604;40.088;18.346;2024-01-10T04:53:24;15.25;;;8.25;;
50872;SDS011;72604;40.088;18.346;2024-01-10T04:57:04;16.08;;;8.65;;
50872;SDS011;72604;40.088;18.346;2024-01-10T05:00:46;19.02;;;9.93;;
50872;SDS011;72604;40.088;18.346;2024-01-10T05:04:27;19.58;;;9.25;;
50872;SDS011;72604;40.088;18.346;2024-01-10T05:08:08;18.63;;;9.60;;
50872;SDS011;72604;40.088;18.346;2024-01-10T05:11:50;17.45;;;9.48;;
50872;SDS011;72604;40.088;18.346;2024-01-10T05:15:32;23.38;;;9.98;;
50872;SDS011;72604;40.088;18.346;2024-01-10T05:19:13;21.23;;;10.40;;
50872;SDS011;72604;40.088;18.346;2024-01-10T05:22:54;21.13;;;11.18;;
50872;SDS011;72604;40.088;18.346;2024-01-10T05:26:37;20.95;;;11.63;;
50872;SDS011;72604;40.088;18.346;2024-01-10T05:30:20;22.65;;;11.82;;
50872;SDS011;72604;40.088;18.346;2024-01-10T05:34:03;28.40;;;14.00;;
50872;SDS011;72604;40.088;18.346;2024-01-10T05:37:45;23.98;;;12.20;;
50872;SDS011;72604;40.088;18.346;2024-01-10T05:41:26;28.98;;;14.57;;
50872;SDS011;72604;40.088;18.346;2024-01-10T05:45:07;23.70;;;14.23;;
50872;SDS011;72604;40.088;18.346;2024-01-10T05:48:49;23.50;;;13.20;;
50872;SDS011;72604;40.088;18.346;2024-01-10T05:52:30;24.13;;;12.88;;
50872;SDS011;72604;40.088;18.346;2024-01-10T05:56:11;24.15;;;13.18;;
50872;SDS011;72604;40.088;18.346;2024-01-10T05:59:52;23.15;;;11.45;;
50872;SDS011;72604;40.088;18.346;2024-01-10T06:03:36;28.58;;;14.82;;
50872;SDS011;72604;40.088;18.346;2024-01-10T06:07:18;22.25;;;12.82;;
50872;SDS011;72604;40.088;18.346;2024-01-10T06:11:02;24.15;;;12.73;;
50872;SDS011;72604;40.088;18.346;2024-01-10T06:14:43;27.42;;;14.80;;
50872;SDS011;72604;40.088;18.346;2024-01-10T06:18:23;26.77;;;15.18;;
50872;SDS011;72604;40.088;18.346;2024-01-10T06:22:04;28.27;;;16.88;;
50872;SDS011;72604;40.088;18.346;2024-01-10T06:25:46;24.00;;;14.20;;
50872;SDS011;72604;40.088;18.346;2024-01-10T06:29:27;27.48;;;14.07;;
50872;SDS011;72604;40.088;18.346;2024-01-10T06:33:09;20.63;;;12.20;;
50872;SDS011;72604;40.088;18.346;2024-01-10T06:36:50;19.95;;;11.82;;
50872;SDS011;72604;40.088;18.346;2024-01-10T06:40:30;16.85;;;10.43;;
50872;SDS011;72604;40.088;18.346;2024-01-10T06:44:13;19.30;;;10.60;;
50872;SDS011;72604;40.088;18.346;2024-01-10T06:47:54;15.60;;;9.93;;
50872;SDS011;72604;40.088;18.346;2024-01-10T06:51:35;22.55;;;12.15;;
50872;SDS011;72604;40.088;18.346;2024-01-10T06:55:16;29.98;;;19.88;;
50872;SDS011;72604;40.088;18.346;2024-01-10T06:58:58;26.45;;;17.40;;
50872;SDS011;72604;40.088;18.346;2024-01-10T07:02:40;21.98;;;14.10;;
50872;SDS011;72604;40.088;18.346;2024-01-10T07:06:21;17.50;;;12.20;;
50872;SDS011;72604;40.088;18.346;2024-01-10T07:10:03;19.83;;;11.63;;
50872;SDS011;72604;40.088;18.346;2024-01-10T07:13:44;22.95;;;11.95;;
50872;SDS011;72604;40.088;18.346;2024-01-10T07:17:26;17.77;;;13.05;;
50872;SDS011;72604;40.088;18.346;2024-01-10T07:21:09;17.27;;;12.25;;
50872;SDS011;72604;40.088;18.346;2024-01-10T07:24:51;18.17;;;9.55;;
50872;SDS011;72604;40.088;18.346;2024-01-10T07:28:32;14.23;;;9.32;;
50872;SDS011;72604;40.088;18.346;2024-01-10T07:32:14;15.30;;;9.35;;
50872;SDS011;72604;40.088;18.346;2024-01-10T07:35:56;16.80;;;10.50;;
50872;SDS011;72604;40.088;18.346;2024-01-10T07:39:39;13.57;;;9.65;;
50872;SDS011;72604;40.088;18.346;2024-01-10T07:43:20;16.13;;;10.27;;
50872;SDS011;72604;40.088;18.346;2024-01-10T07:47:02;16.90;;;10.30;;
50872;SDS011;72604;40.088;18.346;2024-01-10T07:50:43;17.08;;;10.35;;
50872;SDS011;72604;40.088;18.346;2024-01-10T07:54:24;19.10;;;12.70;;
50872;SDS011;72604;40.088;18.346;2024-01-10T07:58:07;19.48;;;13.27;;
50872;SDS011;72604;40.088;18.346;2024-01-10T08:01:54;17.95;;;11.43;;
50872;SDS011;72604;40.088;18.346;2024-01-10T08:05:36;20.30;;;12.02;;
50872;SDS011;72604;40.088;18.346;2024-01-10T08:09:17;17.88;;;11.27;;
50872;SDS011;72604;40.088;18.346;2024-01-10T08:12:59;15.18;;;10.43;;
50872;SDS011;72604;40.088;18.346;2024-01-10T08:16:41;19.02;;;11.50;;
50872;SDS011;72604;40.088;18.346;2024-01-10T08:20:25;15.60;;;10.80;;
50872;SDS011;72604;40.088;18.346;2024-01-10T08:24:07;13.95;;;7.70;;
50872;SDS011;72604;40.088;18.346;2024-01-10T08:27:47;14.95;;;8.77;;
50872;SDS011;72604;40.088;18.346;2024-01-10T08:31:29;12.25;;;7.45;;
50872;SDS011;72604;40.088;18.346;2024-01-10T08:35:12;11.05;;;7.25;;
50872;SDS011;72604;40.088;18.346;2024-01-10T08:38:53;13.88;;;8.48;;
50872;SDS011;72604;40.088;18.346;2024-01-10T08:42:33;12.68;;;7.65;;
50872;SDS011;72604;40.088;18.346;2024-01-10T08:46:14;13.25;;;7.97;;
50872;SDS011;72604;40.088;18.346;2024-01-10T08:49:56;12.05;;;7.78;;
50872;SDS011;72604;40.088;18.346;2024-01-10T08:53:38;13.65;;;8.00;;
50872;SDS011;72604;40.088;18.346;2024-01-10T08:57:19;12.27;;;8.10;;
50872;SDS011;72604;40.088;18.346;2024-01-10T09:01:01;13.73;;;8.13;;
50872;SDS011;72604;40.088;18.346;2024-01-10T09:04:41;14.23;;;7.43;;
50872;SDS011;72604;40.088;18.346;2024-01-10T09:08:23;12.52;;;7.95;;
50872;SDS011;72604;40.088;18.346;2024-01-10T09:12:06;12.77;;;7.82;;
50872;SDS011;72604;40.088;18.346;2024-01-10T09:15:46;13.18;;;6.75;;
50872;SDS011;72604;40.088;18.346;2024-01-10T09:19:28;11.95;;;7.88;;
50872;SDS011;72604;40.088;18.346;2024-01-10T09:23:09;11.43;;;7.50;;
50872;SDS011;72604;40.088;18.346;2024-01-10T09:26:50;11.85;;;7.55;;
50872;SDS011;72604;40.088;18.346;2024-01-10T09:30:32;12.35;;;7.90;;
50872;SDS011;72604;40.088;18.346;2024-01-10T09:34:14;11.95;;;7.13;;
50872;SDS011;72604;40.088;18.346;2024-01-10T09:37:55;11.98;;;7.13;;
50872;SDS011;72604;40.088;18.346;2024-01-10T09:41:36;11.35;;;7.25;;
50872;SDS011;72604;40.088;18.346;2024-01-10T09:45:21;9.70;;;6.65;;
50872;SDS011;72604;40.088;18.346;2024-01-10T09:49:04;7.93;;;6.47;;
50872;SDS011;72604;40.088;18.346;2024-01-10T09:52:46;7.75;;;5.60;;
50872;SDS011;72604;40.088;18.346;2024-01-10T09:56:29;9.70;;;6.18;;
50872;SDS011;72604;40.088;18.346;2024-01-10T10:00:11;9.25;;;6.60;;
50872;SDS011;72604;40.088;18.346;2024-01-10T10:03:52;8.60;;;7.20;;
50872;SDS011;72604;40.088;18.346;2024-01-10T10:07:43;10.63;;;7.13;;
50872;SDS011;72604;40.088;18.346;2024-01-10T10:11:25;12.40;;;9.77;;
50872;SDS011;72604;40.088;18.346;2024-01-10T10:15:09;9.23;;;6.85;;
50872;SDS011;72604;40.088;18.346;2024-01-10T10:18:51;10.70;;;6.20;;
50872;SDS011;72604;40.088;18.346;2024-01-10T10:22:37;6.47;;;5.53;;
50872;SDS011;72604;40.088;18.346;2024-01-10T10:26:19;10.45;;;7.30;;
50872;SDS011;72604;40.088;18.346;2024-01-10T10:30:00;9.63;;;7.68;;
50872;SDS011;72604;40.088;18.346;2024-01-10T10:33:42;10.43;;;8.63;;
50872;SDS011;72604;40.088;18.346;2024-01-10T10:37:23;9.90;;;6.70;;
50872;SDS011;72604;40.088;18.346;2024-01-10T10:41:05;9.60;;;7.13;;
50872;SDS011;72604;40.088;18.346;2024-01-10T10:44:48;8.43;;;6.93;;
50872;SDS011;72604;40.088;18.346;2024-01-10T10:48:31;8.50;;;6.70;;
50872;SDS011;72604;40.088;18.346;2024-01-10T10:52:13;12.65;;;7.30;;
50872;SDS011;72604;40.088;18.346;2024-01-10T10:55:55;42.40;;;37.85;;
50872;SDS011;72604;40.088;18.346;2024-01-10T10:59:37;19.55;;;17.45;;
50872;SDS011;72604;40.088;18.346;2024-01-10T11:03:20;10.02;;;8.63;;
50872;SDS011;72604;40.088;18.346;2024-01-10T11:07:02;8.25;;;6.50;;
50872;SDS011;72604;40.088;18.346;2024-01-10T11:10:43;9.55;;;7.22;;
50872;SDS011;72604;40.088;18.346;2024-01-10T11:14:28;13.98;;;7.78;;
50872;SDS011;72604;40.088;18.346;2024-01-10T11:18:29;9.63;;;6.15;;
50872;SDS011;72604;40.088;18.346;2024-01-10T11:22:16;8.15;;;6.63;;
50872;SDS011;72604;40.088;18.346;2024-01-10T11:26:02;7.97;;;5.90;;
50872;SDS011;72604;40.088;18.346;2024-01-10T11:29:45;8.40;;;6.65;;
50872;SDS011;72604;40.088;18.346;2024-01-10T11:33:32;9.40;;;8.35;;
50872;SDS011;72604;40.088;18.346;2024-01-10T11:37:13;11.57;;;7.85;;
50872;SDS011;72604;40.088;18.346;2024-01-10T11:40:55;18.85;;;13.43;;
50872;SDS011;72604;40.088;18.346;2024-01-10T11:44:47;9.48;;;7.68;;
50872;SDS011;72604;40.088;18.346;2024-01-10T11:48:30;8.95;;;7.00;;
50872;SDS011;72604;40.088;18.346;2024-01-10T11:52:13;8.43;;;6.22;;
50872;SDS011;72604;40.088;18.346;2024-01-10T11:55:56;6.90;;;5.13;;
50872;SDS011;72604;40.088;18.346;2024-01-10T11:59:37;14.15;;;12.02;;
50872;SDS011;72604;40.088;18.346;2024-01-10T12:03:19;10.30;;;9.20;;
50872;SDS011;72604;40.088;18.346;2024-01-10T12:07:00;11.10;;;8.93;;
50872;SDS011;72604;40.088;18.346;2024-01-10T12:10:43;8.98;;;5.32;;
50872;SDS011;72604;40.088;18.346;2024-01-10T12:14:24;9.55;;;6.32;;
50872;SDS011;72604;40.088;18.346;2024-01-10T12:18:05;10.63;;;7.53;;
50872;SDS011;72604;40.088;18.346;2024-01-10T12:21:46;11.80;;;7.53;;
50872;SDS011;72604;40.088;18.346;2024-01-10T12:25:28;8.13;;;6.40;;
50872;SDS011;72604;40.088;18.346;2024-01-10T12:29:11;7.13;;;5.70;;
50872;SDS011;72604;40.088;18.346;2024-01-10T12:32:52;10.75;;;8.57;;
50872;SDS011;72604;40.088;18.346;2024-01-10T12:36:32;10.20;;;6.03;;
50872;SDS011;72604;40.088;18.346;2024-01-10T12:40:13;9.13;;;6.78;;
50872;SDS011;72604;40.088;18.346;2024-01-10T12:43:55;8.80;;;5.78;;
50872;SDS011;72604;40.088;18.346;2024-01-10T12:47:37;7.43;;;5.97;;
50872;SDS011;72604;40.088;18.346;2024-01-10T12:51:20;7.65;;;6.63;;
50872;SDS011;72604;40.088;18.346;2024-01-10T12:55:02;12.80;;;9.85;;
50872;SDS011;72604;40.088;18.346;2024-01-10T12:58:43;9.32;;;7.60;;
50872;SDS011;72604;40.088;18.346;2024-01-10T13:02:24;84.43;;;62.20;;
50872;SDS011;72604;40.088;18.346;2024-01-10T13:06:07;27.77;;;20.23;;
50872;SDS011;72604;40.088;18.346;2024-01-10T13:09:48;35.25;;;26.02;;
50872;SDS011;72604;40.088;18.346;2024-01-10T13:13:28;21.85;;;17.02;;
50872;SDS011;72604;40.088;18.346;2024-01-10T13:17:09;9.02;;;5.70;;
50872;SDS011;72604;40.088;18.346;2024-01-10T13:20:50;9.57;;;5.93;;
50872;SDS011;72604;40.088;18.346;2024-01-10T13:24:32;17.77;;;13.38;;
50872;SDS011;72604;40.088;18.346;2024-01-10T13:28:13;20.65;;;14.98;;
50872;SDS011;72604;40.088;18.346;2024-01-10T13:31:55;12.80;;;10.40;;
50872;SDS011;72604;40.088;18.346;2024-01-10T13:35:36;21.35;;;18.48;;
50872;SDS011;72604;40.088;18.346;2024-01-10T13:39:17;8.07;;;6.93;;
50872;SDS011;72604;40.088;18.346;2024-01-10T13:43:00;16.50;;;10.93;;
50872;SDS011;72604;40.088;18.346;2024-01-10T13:46:42;8.77;;;6.40;;
50872;SDS011;72604;40.088;18.346;2024-01-10T13:50:23;8.50;;;6.85;;
50872;SDS011;72604;40.088;18.346;2024-01-10T13:54:05;10.82;;;7.80;;
50872;SDS011;72604;40.088;18.346;2024-01-10T13:57:46;11.43;;;6.30;;
50872;SDS011;72604;40.088;18.346;2024-01-10T14:01:28;9.32;;;6.50;;
50872;SDS011;72604;40.088;18.346;2024-01-10T14:05:09;9.13;;;7.03;;
50872;SDS011;72604;40.088;18.346;2024-01-10T14:08:50;8.10;;;6.35;;
50872;SDS011;72604;40.088;18.346;2024-01-10T14:12:32;13.27;;;8.57;;
50872;SDS011;72604;40.088;18.346;2024-01-10T14:16:14;150.02;;;103.03;;
50872;SDS011;72604;40.088;18.346;2024-01-10T14:19:56;12.23;;;9.15;;
50872;SDS011;72604;40.088;18.346;2024-01-10T14:23:37;11.60;;;9.52;;
50872;SDS011;72604;40.088;18.346;2024-01-10T14:27:18;9.88;;;7.00;;
50872;SDS011;72604;40.088;18.346;2024-01-10T14:30:59;11.77;;;8.18;;
50872;SDS011;72604;40.088;18.346;2024-01-10T14:34:41;7.07;;;5.90;;
50872;SDS011;72604;40.088;18.346;2024-01-10T14:38:23;9.35;;;7.03;;
50872;SDS011;72604;40.088;18.346;2024-01-10T14:42:05;20.00;;;14.60;;
50872;SDS011;72604;40.088;18.346;2024-01-10T14:45:46;10.77;;;8.30;;
50872;SDS011;72604;40.088;18.346;2024-01-10T14:49:26;13.50;;;10.65;;
50872;SDS011;72604;40.088;18.346;2024-01-10T14:53:07;14.10;;;10.75;;
50872;SDS011;72604;40.088;18.346;2024-01-10T14:56:50;11.40;;;9.05;;
50872;SDS011;72604;40.088;18.346;2024-01-10T15:00:32;17.63;;;12.63;;
50872;SDS011;72604;40.088;18.346;2024-01-10T15:04:13;14.88;;;11.23;;
50872;SDS011;72604;40.088;18.346;2024-01-10T15:07:54;26.88;;;21.33;;
50872;SDS011;72604;40.088;18.346;2024-01-10T15:11:36;11.75;;;9.98;;
50872;SDS011;72604;40.088;18.346;2024-01-10T15:15:20;22.40;;;17.73;;
50872;SDS011;72604;40.088;18.346;2024-01-10T15:19:00;11.27;;;10.10;;
50872;SDS011;72604;40.088;18.346;2024-01-10T15:22:43;22.33;;;15.70;;
50872;SDS011;72604;40.088;18.346;2024-01-10T15:26:23;19.83;;;14.55;;
50872;SDS011;72604;40.088;18.346;2024-01-10T15:30:05;15.48;;;11.68;;
50872;SDS011;72604;40.088;18.346;2024-01-10T15:33:51;25.33;;;17.40;;
50872;SDS011;72604;40.088;18.346;2024-01-10T15:37:32;30.73;;;19.67;;
50872;SDS011;72604;40.088;18.346;2024-01-10T15:41:13;26.58;;;17.13;;
50872;SDS011;72604;40.088;18.346;2024-01-10T15:44:54;32.72;;;24.35;;
50872;SDS011;72604;40.088;18.346;2024-01-10T15:48:36;32.03;;;23.48;;
50872;SDS011;72604;40.088;18.346;2024-01-10T15:52:18;27.42;;;20.25;;
50872;SDS011;72604;40.088;18.346;2024-01-10T15:56:05;40.63;;;31.35;;
50872;SDS011;72604;40.088;18.346;2024-01-10T15:59:47;64.72;;;47.10;;
50872;SDS011;72604;40.088;18.346;2024-01-10T16:03:28;60.58;;;44.13;;
50872;SDS011;72604;40.088;18.346;2024-01-10T16:07:09;47.58;;;34.65;;
50872;SDS011;72604;40.088;18.346;2024-01-10T16:10:51;44.35;;;31.42;;
50872;SDS011;72604;40.088;18.346;2024-01-10T16:14:32;40.25;;;30.20;;
50872;SDS011;72604;40.088;18.346;2024-01-10T16:18:13;40.00;;;30.55;;
50872;SDS011;72604;40.088;18.346;2024-01-10T16:21:54;42.00;;;31.88;;
50872;SDS011;72604;40.088;18.346;2024-01-10T16:25:35;48.95;;;34.88;;
50872;SDS011;72604;40.088;18.346;2024-01-10T16:29:18;52.55;;;40.95;;
50872;SDS011;72604;40.088;18.346;2024-01-10T16:32:59;51.22;;;38.85;;
50872;SDS011;72604;40.088;18.346;2024-01-10T16:36:40;47.45;;;37.67;;
50872;SDS011;72604;40.088;18.346;2024-01-10T16:40:21;45.63;;;36.65;;
50872;SDS011;72604;40.088;18.346;2024-01-10T16:44:02;47.92;;;38.42;;
50872;SDS011;72604;40.088;18.346;2024-01-10T16:47:44;50.38;;;40.90;;
50872;SDS011;72604;40.088;18.346;2024-01-10T16:51:26;47.35;;;38.10;;
50872;SDS011;72604;40.088;18.346;2024-01-10T16:55:07;149.80;;;94.28;;
50872;SDS011;72604;40.088;18.346;2024-01-10T16:58:48;60.58;;;44.22;;
50872;SDS011;72604;40.088;18.346;2024-01-10T17:02:30;35.10;;;27.15;;
50872;SDS011;72604;40.088;18.346;2024-01-10T17:06:12;35.92;;;25.80;;
50872;SDS011;72604;40.088;18.346;2024-01-10T17:09:53;40.72;;;28.60;;
50872;SDS011;72604;40.088;18.346;2024-01-10T17:13:34;43.47;;;31.40;;
50872;SDS011;72604;40.088;18.346;2024-01-10T17:17:15;42.25;;;31.70;;
50872;SDS011;72604;40.088;18.346;2024-01-10T17:20:55;45.85;;;34.40;;
50872;SDS011;72604;40.088;18.346;2024-01-10T17:24:38;43.80;;;34.20;;
50872;SDS011;72604;40.088;18.346;2024-01-10T17:28:19;52.70;;;36.30;;
50872;SDS011;72604;40.088;18.346;2024-01-10T17:32:02;43.30;;;35.85;;
50872;SDS011;72604;40.088;18.346;2024-01-10T17:35:43;47.17;;;37.53;;
50872;SDS011;72604;40.088;18.346;2024-01-10T17:39:23;49.95;;;42.10;;
50872;SDS011;72604;40.088;18.346;2024-01-10T17:43:06;51.08;;;42.08;;
50872;SDS011;72604;40.088;18.346;2024-01-10T17:46:48;51.67;;;41.90;;
50872;SDS011;72604;40.088;18.346;2024-01-10T17:50:29;46.25;;;37.72;;
50872;SDS011;72604;40.088;18.346;2024-01-10T17:54:11;45.35;;;37.50;;
50872;SDS011;72604;40.088;18.346;2024-01-10T17:57:51;60.80;;;46.30;;
50872;SDS011;72604;40.088;18.346;2024-01-10T18:01:34;60.75;;;48.95;;
50872;SDS011;72604;40.088;18.346;2024-01-10T18:05:15;62.17;;;49.00;;
50872;SDS011;72604;40.088;18.346;2024-01-10T18:08:57;59.30;;;44.70;;
50872;SDS011;72604;40.088;18.346;2024-01-10T18:12:37;65.22;;;51.10;;
50872;SDS011;72604;40.088;18.346;2024-01-10T18:16:18;43.95;;;37.00;;
50872;SDS011;72604;40.088;18.346;2024-01-10T18:20:00;42.33;;;34.33;;
50872;SDS011;72604;40.088;18.346;2024-01-10T18:23:42;44.38;;;35.75;;
50872;SDS011;72604;40.088;18.346;2024-01-10T18:27:23;42.47;;;35.85;;
50872;SDS011;72604;40.088;18.346;2024-01-10T18:31:04;46.92;;;36.17;;
50872;SDS011;72604;40.088;18.346;2024-01-10T18:34:45;47.63;;;37.60;;
50872;SDS011;72604;40.088;18.346;2024-01-10T18:38:28;48.33;;;38.72;;
50872;SDS011;72604;40.088;18.346;2024-01-10T18:42:09;46.70;;;37.70;;
50872;SDS011;72604;40.088;18.346;2024-01-10T18:45:51;45.85;;;39.05;;
50872;SDS011;72604;40.088;18.346;2024-01-10T18:49:32;46.72;;;38.63;;
50872;SDS011;72604;40.088;18.346;2024-01-10T18:53:13;43.38;;;36.83;;
50872;SDS011;72604;40.088;18.346;2024-01-10T18:56:56;38.70;;;33.28;;
50872;SDS011;72604;40.088;18.346;2024-01-10T19:00:37;38.20;;;31.80;;
50872;SDS011;72604;40.088;18.346;2024-01-10T19:04:20;43.53;;;34.22;;
50872;SDS011;72604;40.088;18.346;2024-01-10T19:08:01;48.20;;;40.10;;
50872;SDS011;72604;40.088;18.346;2024-01-10T19:11:42;46.05;;;38.20;;
50872;SDS011;72604;40.088;18.346;2024-01-10T19:15:27;43.35;;;35.42;;
50872;SDS011;72604;40.088;18.346;2024-01-10T19:19:07;46.63;;;35.33;;
50872;SDS011;72604;40.088;18.346;2024-01-10T19:22:48;43.05;;;33.60;;
50872;SDS011;72604;40.088;18.346;2024-01-10T19:26:30;38.10;;;30.23;;
50872;SDS011;72604;40.088;18.346;2024-01-10T19:30:11;41.50;;;32.15;;
50872;SDS011;72604;40.088;18.346;2024-01-10T19:34:01;42.08;;;33.22;;
50872;SDS011;72604;40.088;18.346;2024-01-10T19:37:42;40.28;;;31.33;;
50872;SDS011;72604;40.088;18.346;2024-01-10T19:41:23;37.58;;;29.48;;
50872;SDS011;72604;40.088;18.346;2024-01-10T19:45:06;38.55;;;28.90;;
50872;SDS011;72604;40.088;18.346;2024-01-10T19:48:47;46.47;;;33.30;;
50872;SDS011;72604;40.088;18.346;2024-01-10T19:52:30;33.03;;;25.15;;
50872;SDS011;72604;40.088;18.346;2024-01-10T19:56:11;36.80;;;27.08;;
50872;SDS011;72604;40.088;18.346;2024-01-10T19:59:52;51.80;;;38.65;;
50872;SDS011;72604;40.088;18.346;2024-01-10T20:03:33;62.33;;;43.72;;
50872;SDS011;72604;40.088;18.346;2024-01-10T20:07:15;45.47;;;34.03;;
50872;SDS011;72604;40.088;18.346;2024-01-10T20:10:57;40.08;;;30.92;;
50872;SDS011;72604;40.088;18.346;2024-01-10T20:14:38;47.88;;;36.47;;
50872;SDS011;72604;40.088;18.346;2024-01-10T20:18:19;50.45;;;37.30;;
50872;SDS011;72604;40.088;18.346;2024-01-10T20:22:00;52.90;;;37.95;;
50872;SDS011;72604;40.088;18.346;2024-01-10T20:25:43;52.60;;;36.05;;
50872;SDS011;72604;40.088;18.346;2024-01-10T20:29:25;44.03;;;31.65;;
50872;SDS011;72604;40.088;18.346;2024-01-10T20:33:08;41.75;;;30.27;;
50872;SDS011;72604;40.088;18.346;2024-01-10T20:36:49;39.78;;;29.45;;
50872;SDS011;72604;40.088;18.346;2024-01-10T20:40:30;40.53;;;29.70;;
50872;SDS011;72604;40.088;18.346;2024-01-10T20:44:11;42.72;;;30.88;;
50872;SDS011;72604;40.088;18.346;2024-01-10T20:47:54;47.85;;;33.35;;
50872;SDS011;72604;40.088;18.346;2024-01-10T20:51:34;48.17;;;35.80;;
50872;SDS011;72604;40.088;18.346;2024-01-10T20:55:15;46.03;;;33.30;;
50872;SDS011;72604;40.088;18.346;2024-01-10T20:58:56;48.03;;;34.22;;
50872;SDS011;72604;40.088;18.346;2024-01-10T21:02:38;41.65;;;31.20;;
50872;SDS011;72604;40.088;18.346;2024-01-10T21:06:23;41.05;;;29.98;;
50872;SDS011;72604;40.088;18.346;2024-01-10T21:10:04;36.92;;;27.63;;
50872;SDS011;72604;40.088;18.346;2024-01-10T21:13:45;34.67;;;26.50;;
50872;SDS011;72604;40.088;18.346;2024-01-10T21:17:26;37.65;;;26.98;;
50872;SDS011;72604;40.088;18.346;2024-01-10T21:21:07;37.33;;;28.48;;
50872;SDS011;72604;40.088;18.346;2024-01-10T21:24:50;38.47;;;27.38;;
50872;SDS011;72604;40.088;18.346;2024-01-10T21:28:33;36.83;;;27.08;;